Time;durP1;ratioP1;P1;durP2;ratioP2;P2;SDS_P1;SDS_P2;PMS_P1;PMS_P2;Temp;Humidity;BMP_temperature;BMP_pressure;BME280_temperature;BME280_humidity;BME280_pressure;Samples;Min_cycle;Max_cycle;Signal;HPM_P1;HPM_P2
2020/12/10 00:01:33;;;;;;;25.73;10.43;;;;;;;-5.90;55.38;102700.28;1785645;80;21295;-78
2020/12/10 00:04:06;;;;;;;41.68;19.70;;;;;;;-5.89;55.27;102699.44;1770109;79;21144;-79
2020/12/10 00:06:40;;;;;;;16.12;8.85;;;;;;;-5.89;55.23;102695.20;1768457;81;21381;-79
2020/12/10 00:09:13;;;;;;;18.37;8.53;;;;;;;-5.89;55.17;102691.78;1768672;81;21247;-79
2020/12/10 00:11:47;;;;;;;17.55;7.87;;;;;;;-5.95;55.20;102691.69;1767766;81;21238;-79
2020/12/10 00:14:20;;;;;;;19.00;8.90;;;;;;;-5.95;55.27;102687.45;1768532;81;21224;-79
2020/12/10 00:16:53;;;;;;;15.90;6.40;;;;;;;-5.98;55.33;102695.05;1768578;81;21144;-79
2020/12/10 00:19:26;;;;;;;14.60;7.67;;;;;;;-5.98;55.42;102683.98;1768511;81;21357;-80
2020/12/10 00:21:59;;;;;;;15.77;7.87;;;;;;;-5.98;55.47;102691.63;1767744;81;21243;-79
2020/12/10 00:24:32;;;;;;;15.67;8.00;;;;;;;-5.93;55.45;102690.02;1767728;81;21143;-80
2020/12/10 00:27:05;;;;;;;19.17;7.95;;;;;;;-5.92;55.36;102686.21;1776703;80;21374;-79
2020/12/10 00:29:38;;;;;;;;;;;;;;;-5.88;55.35;102685.86;1785851;80;21179;-79
2020/12/10 00:32:14;;;;;;;15.30;6.75;;;;;;;-5.85;55.28;102680.38;1783870;80;20251;-79
2020/12/10 00:34:48;;;;;;;20.30;7.45;;;;;;;-5.86;55.15;102673.58;1756509;80;21275;-80
2020/12/10 00:37:20;;;;;;;17.37;7.70;;;;;;;-5.89;55.14;102676.06;1729920;81;21172;-79
2020/12/10 00:39:54;;;;;;;15.90;7.75;;;;;;;-5.89;55.14;102676.06;1731560;83;21271;-78
2020/12/10 00:42:27;;;;;;;18.35;8.23;;;;;;;-5.90;55.13;102673.50;1731100;81;21821;-79
2020/12/10 00:44:59;;;;;;;21.52;8.53;;;;;;;-5.93;54.99;102681.09;1730909;83;21937;-79
2020/12/10 00:47:32;;;;;;;19.45;8.60;;;;;;;-6.05;55.11;102669.41;1730300;83;21284;-78
2020/12/10 00:50:08;;;;;;;18.85;8.83;;;;;;;-6.10;55.36;102668.47;1730031;83;21334;-79
2020/12/10 00:52:42;;;;;;;20.85;9.48;;;;;;;-6.09;55.40;102675.30;1731116;81;21798;-79
2020/12/10 00:55:17;;;;;;;22.05;9.30;;;;;;;-6.14;55.48;102676.50;1730870;83;21211;-79
2020/12/10 00:57:50;;;;;;;21.47;9.13;;;;;;;-6.14;55.57;102674.36;1730715;83;21263;-78
2020/12/10 01:00:24;;;;;;;19.60;8.73;;;;;;;-6.17;55.51;102672.61;1731051;83;21583;-79
2020/12/10 01:02:57;;;;;;;24.43;9.23;;;;;;;-6.23;55.60;102675.03;1731062;83;21694;-78
2020/12/10 01:05:30;;;;;;;27.50;8.90;;;;;;;-6.26;55.72;102680.09;1731201;81;21191;-79
2020/12/10 01:08:03;;;;;;;19.07;7.40;;;;;;;-6.26;55.78;102677.55;1731185;81;21279;-79
2020/12/10 01:10:36;;;;;;;27.60;10.50;;;;;;;-6.28;55.77;102679.21;1730577;83;21187;-78
2020/12/10 01:13:09;;;;;;;23.40;9.30;;;;;;;-6.35;55.81;102684.59;1731630;81;21310;-79
2020/12/10 01:15:42;;;;;;;25.73;8.73;;;;;;;-6.41;56.05;102684.48;1732030;82;21172;-74
2020/12/10 01:18:15;;;;;;;18.53;8.73;;;;;;;-6.40;56.19;102682.36;1735114;81;21113;-79
2020/12/10 01:20:48;;;;;;;16.05;7.45;;;;;;;-6.36;56.20;102686.71;1710706;81;21254;-79
2020/12/10 01:23:21;;;;;;;21.60;8.17;;;;;;;-6.35;56.08;102681.17;1730504;81;21203;-80
2020/12/10 01:25:54;;;;;;;20.20;8.63;;;;;;;-6.35;56.14;102682.45;1736691;81;21254;-78
2020/12/10 01:28:26;;;;;;;18.10;8.53;;;;;;;-6.36;56.09;102680.34;1771859;81;21335;-79
2020/12/10 01:30:59;;;;;;;23.47;9.93;;;;;;;-6.37;56.11;102678.61;1771714;81;21311;-79
2020/12/10 01:33:33;;;;;;;17.10;8.00;;;;;;;-6.38;56.07;102677.31;1771527;81;21251;-78
2020/12/10 01:36:05;;;;;;;28.73;7.67;;;;;;;-6.43;56.12;102673.41;1772915;81;21256;-79
2020/12/10 01:38:38;;;;;;;20.32;8.35;;;;;;;-6.45;56.21;102666.16;1771170;81;21555;-79
2020/12/10 01:41:11;;;;;;;16.37;7.90;;;;;;;-6.47;56.20;102672.05;1771671;81;21794;-79
2020/12/10 01:43:45;;;;;;;17.95;8.35;;;;;;;-6.52;56.22;102677.03;1771508;81;21189;-79
2020/12/10 01:46:17;;;;;;;19.93;8.67;;;;;;;-6.55;56.39;102678.68;1773003;81;21320;-79
2020/12/10 01:48:51;;;;;;;17.00;8.50;;;;;;;-6.52;56.49;102684.67;1772030;81;21326;-75
2020/12/10 01:51:23;;;;;;;25.90;8.20;;;;;;;-6.49;56.49;102680.05;1772048;81;21244;-79
2020/12/10 01:53:57;;;;;;;18.10;8.40;;;;;;;-6.46;56.45;102669.93;1771865;81;21138;-79
2020/12/10 01:56:30;;;;;;;19.23;8.00;;;;;;;-6.41;56.45;102679.80;1771423;80;21291;-78
2020/12/10 01:59:04;;;;;;;21.27;8.80;;;;;;;-6.37;56.35;102667.14;1772000;81;21249;-79
2020/12/10 02:01:38;;;;;;;19.92;8.20;;;;;;;-6.34;56.23;102669.75;1768990;79;21167;-79
2020/12/10 02:04:30;;;;;;;20.17;8.38;;;;;;;-6.32;56.30;102679.97;1756204;81;21167;-79
2020/12/10 02:07:03;;;;;;;16.32;7.90;;;;;;;-6.30;56.17;102682.98;1757461;81;21256;-79
2020/12/10 02:09:36;;;;;;;18.42;7.75;;;;;;;-6.31;56.11;102686.38;1756762;81;21283;-80
2020/12/10 02:12:09;;;;;;;18.80;7.73;;;;;;;-6.30;56.07;102685.95;1757247;81;21310;-79
2020/12/10 02:14:42;;;;;;;15.48;8.70;;;;;;;-6.28;56.00;102680.48;1756508;81;21195;-79
2020/12/10 02:17:15;;;;;;;18.10;8.40;;;;;;;-6.31;55.91;102679.15;1755963;81;21248;-78
2020/12/10 02:19:48;;;;;;;16.23;8.68;;;;;;;-6.34;55.89;102683.77;1756448;80;21303;-79
2020/12/10 02:22:21;;;;;;;20.25;9.83;;;;;;;-6.39;55.98;102684.50;1757482;81;21798;-79
2020/12/10 02:24:54;;;;;;;30.23;10.80;;;;;;;-6.38;56.09;102690.06;1756831;81;21137;-79
2020/12/10 02:27:27;;;;;;;42.35;15.03;;;;;;;-6.35;56.13;102688.82;1772284;81;21251;-80
2020/12/10 02:30:01;;;;;;;46.10;18.55;;;;;;;-6.33;56.30;102685.47;1776655;81;21848;-80
2020/12/10 02:32:34;;;;;;;29.85;10.95;;;;;;;-6.28;56.34;102689.41;1777849;81;21231;-80
2020/12/10 02:35:07;;;;;;;22.47;10.37;;;;;;;-6.25;56.19;102690.72;1777880;81;21136;-79
2020/12/10 02:37:40;;;;;;;28.07;10.75;;;;;;;-6.22;56.07;102684.00;1777161;80;21263;-79
2020/12/10 02:40:13;;;;;;;25.55;10.10;;;;;;;-6.17;55.96;102687.49;1776279;80;21735;-77
2020/12/10 02:42:47;;;;;;;24.07;10.77;;;;;;;-6.14;55.75;102687.10;1778348;81;21275;-79
2020/12/10 02:45:22;;;;;;;22.75;10.43;;;;;;;-6.18;55.52;102681.94;1777489;80;21184;-80
2020/12/10 02:47:56;;;;;;;34.18;12.10;;;;;;;-6.22;55.53;102693.33;1777449;81;21239;-79
2020/12/10 02:50:29;;;;;;;66.53;21.55;;;;;;;-6.23;55.69;102692.88;1746920;81;21208;-79
2020/12/10 02:53:02;;;;;;;32.58;13.03;;;;;;;-6.24;55.58;102684.39;1777734;81;21298;-78
2020/12/10 02:55:36;;;;;;;35.70;13.83;;;;;;;-6.22;55.68;102694.61;1777786;80;21250;-79
2020/12/10 02:58:09;;;;;;;38.92;13.32;;;;;;;-6.20;55.60;102689.11;1777456;80;21769;-78
2020/12/10 03:00:42;;;;;;;27.43;11.60;;;;;;;-6.19;55.63;102690.44;1777247;81;21239;-79
2020/12/10 03:03:15;;;;;;;38.50;10.63;;;;;;;-6.19;55.58;102688.30;1773080;81;22006;-79
2020/12/10 03:05:48;;;;;;;32.88;10.75;;;;;;;-6.19;55.88;102690.44;1757168;80;21774;-79
2020/12/10 03:08:21;;;;;;;22.43;7.73;;;;;;;-6.18;55.70;102695.95;1757374;81;21252;-79
2020/12/10 03:10:54;;;;;;;23.80;9.93;;;;;;;-6.17;55.71;102690.05;1756830;81;21263;-78
2020/12/10 03:13:26;;;;;;;14.47;6.50;;;;;;;-6.15;55.47;102692.61;1756289;80;21244;-78
2020/12/10 03:16:00;;;;;;;25.68;9.43;;;;;;;-6.20;55.36;102686.16;1757484;80;21782;-79
2020/12/10 03:18:33;;;;;;;53.45;15.63;;;;;;;-6.23;55.37;102681.41;1757352;81;21244;-80
2020/12/10 03:21:06;;;;;;;34.10;11.48;;;;;;;-6.27;55.36;102693.25;1756226;81;21248;-78
2020/12/10 03:23:39;;;;;;;44.13;12.75;;;;;;;-6.27;55.43;102692.38;1756521;80;21247;-79
2020/12/10 03:26:12;;;;;;;44.07;12.73;;;;;;;-6.27;55.37;102692.38;1761486;80;21204;-79
2020/12/10 03:28:44;;;;;;;29.77;10.32;;;;;;;-6.31;55.40;102695.30;1778051;81;21859;-79
2020/12/10 03:31:17;;;;;;;17.27;7.43;;;;;;;-6.34;55.34;102696.52;1777380;81;21251;-80
2020/12/10 03:33:50;;;;;;;16.67;6.70;;;;;;;-6.40;55.37;102691.73;1777252;80;21884;-79
2020/12/10 03:36:23;;;;;;;19.23;7.50;;;;;;;-6.47;55.36;102687.34;1777206;80;21777;-78
2020/12/10 03:38:56;;;;;;;87.90;44.27;;;;;;;-6.57;55.44;102684.16;1748713;80;21298;-79
2020/12/10 03:41:29;;;;;;;165.93;54.93;;;;;;;-6.67;55.60;102687.35;1777294;81;21239;-80
2020/12/10 03:44:02;;;;;;;195.85;53.55;;;;;;;-6.77;55.86;102692.67;1778099;81;21188;-80
2020/12/10 03:46:35;;;;;;;274.20;66.30;;;;;;;-6.84;56.10;102688.28;1780857;78;21212;-79
2020/12/10 03:49:09;;;;;;;520.83;117.97;;;;;;;-6.89;56.28;102698.78;1779070;80;21251;-80
2020/12/10 03:51:42;;;;;;;172.55;43.83;;;;;;;-6.94;56.49;102695.28;1776689;79;21346;-79
2020/12/10 03:54:15;;;;;;;256.03;65.30;;;;;;;-6.95;56.64;102696.95;1778070;81;21128;-78
2020/12/10 03:56:48;;;;;;;133.20;48.92;;;;;;;-6.97;56.67;102694.80;1777649;79;21136;-78
2020/12/10 03:59:21;;;;;;;284.73;93.45;;;;;;;-7.06;56.73;102699.70;1776828;79;21741;-77
2020/12/10 04:01:55;;;;;;;282.73;96.20;;;;;;;-7.10;56.96;102702.15;1777481;81;21235;-78
2020/12/10 04:04:28;;;;;;;339.05;130.82;;;;;;;-7.09;57.18;102701.33;1797069;79;21778;-81
2020/12/10 04:07:01;;;;;;;57.58;28.00;;;;;;;-7.04;57.25;102706.08;1812874;79;21287;-81
2020/12/10 04:09:36;;;;;;;91.87;44.90;;;;;;;-6.98;57.23;102708.37;1812663;79;21765;-78
2020/12/10 04:12:09;;;;;;;18.12;8.50;;;;;;;-6.95;57.27;102708.86;1812519;79;21338;-75
2020/12/10 04:14:43;;;;;;;19.90;9.03;;;;;;;-6.93;57.39;102712.28;1812914;79;21308;-77
2020/12/10 04:17:16;;;;;;;19.93;9.03;;;;;;;-6.89;57.43;102707.29;1812733;79;21852;-76
2020/12/10 04:19:49;;;;;;;25.45;10.35;;;;;;;-6.85;57.33;102702.70;1812245;79;21315;-76
2020/12/10 04:22:22;;;;;;;34.57;15.27;;;;;;;-6.79;57.21;102704.93;1811583;79;21337;-77
2020/12/10 04:24:55;;;;;;;23.50;9.23;;;;;;;-6.77;57.16;102698.17;1813475;79;21295;-75
2020/12/10 04:27:28;;;;;;;16.17;5.90;;;;;;;-6.77;57.14;102697.77;1784675;79;21189;-77
2020/12/10 04:30:01;;;;;;;16.65;8.70;;;;;;;-6.76;56.95;102697.36;1776204;81;21200;-75
2020/12/10 04:32:58;;;;;;;;;;;;;;;;;;;;;
2020/12/10 04:36:13;;;;;;;30.55;10.18;;;;;;;-6.73;56.86;102698.70;1735081;81;21149;-93
2020/12/10 04:39:52;;;;;;;15.65;7.42;;;;;;;-6.70;56.61;102697.47;1768728;80;21702;-95
2020/12/10 04:43:54;;;;;;;;;;;;;;;;;;;;;
2020/12/10 04:47:39;;;;;;;;;;;;;;;;;;;;;
2020/12/10 04:51:19;;;;;;;28.70;11.73;;;;;;;-6.73;56.20;102693.61;1745877;80;21703;-95
2020/12/10 05:13:42;;;;;;;36.15;15.15;;;;;;;-6.78;56.05;102704.11;1368334;104;21345;-94
2020/12/10 05:21:29;;;;;;;;;;;;;;;;;;;;;
2020/12/10 05:25:27;;;;;;;;;;;;;;;;;;;;;
2020/12/10 05:31:13;;;;;;;15.95;8.03;;;;;;;-4.96;53.23;102720.02;1857877;76;22165;-76
2020/12/10 05:33:59;;;;;;;30.80;8.00;;;;;;;-4.54;52.32;102733.78;1786091;80;21144;-77
2020/12/10 05:36:33;;;;;;;17.70;7.72;;;;;;;-4.00;51.19;102719.88;1785989;80;21141;-76
2020/12/10 05:39:11;;;;;;;22.50;9.33;;;;;;;-3.46;49.86;102717.38;1784926;80;21940;-78
2020/12/10 05:41:44;;;;;;;21.80;10.80;;;;;;;-2.99;48.44;102720.70;1786507;80;21789;-78
2020/12/10 05:44:23;;;;;;;22.52;10.55;;;;;;;-2.83;47.88;102718.65;1756070;80;21224;-78
2020/12/10 05:47:08;;;;;;;29.02;11.38;;;;;;;-2.38;47.18;102717.56;1774221;80;21256;-78
2020/12/10 05:49:40;;;;;;;23.10;9.38;;;;;;;-1.70;45.90;102713.86;1774496;79;21208;-76
2020/12/10 05:52:15;;;;;;;17.82;8.63;;;;;;;-1.05;44.72;102722.78;1784837;79;21343;-77
2020/12/10 05:54:49;;;;;;;17.60;8.60;;;;;;;-0.41;43.06;102720.89;1778335;79;21189;-78
2020/12/10 05:57:22;;;;;;;23.98;8.50;;;;;;;0.04;42.06;102722.34;1777361;79;21282;-74
2020/12/10 05:59:54;;;;;;;15.25;7.78;;;;;;;0.56;40.57;102727.97;1785170;79;21358;-73
2020/12/10 06:02:27;;;;;;;21.87;9.10;;;;;;;0.96;39.62;102720.28;1785360;79;21160;-76
2020/12/10 06:05:01;;;;;;;15.95;7.70;;;;;;;1.29;38.66;102717.34;1781151;79;21324;-75
2020/12/10 06:07:34;;;;;;;20.35;11.18;;;;;;;1.66;37.84;102715.60;1784349;79;21302;-77
2020/12/10 06:10:07;;;;;;;21.82;9.08;;;;;;;2.04;36.80;102716.79;1729296;80;21302;-78
2020/12/10 06:12:47;;;;;;;23.62;11.45;;;;;;;2.33;36.48;102719.37;1740438;80;21207;-74
2020/12/10 06:15:32;;;;;;;36.30;11.33;;;;;;;2.71;35.76;102730.80;1749698;80;21319;-74
2020/12/10 06:18:13;;;;;;;25.70;11.30;;;;;;;3.10;35.24;102733.55;1722218;81;21882;-73
2020/12/10 06:20:48;;;;;;;16.93;9.03;;;;;;;3.56;34.40;102733.52;1739142;80;21291;-73
2020/12/10 06:23:35;;;;;;;18.77;9.00;;;;;;;3.90;33.52;102735.34;1731693;80;21308;-71
2020/12/10 06:26:27;;;;;;;16.27;9.08;;;;;;;4.25;32.97;102735.83;1734664;80;21274;-76
2020/12/10 06:29:31;;;;;;;28.20;11.20;;;;;;;4.56;32.44;102734.22;1730473;80;21287;-71
2020/12/10 06:32:16;;;;;;;20.63;10.00;;;;;;;4.95;32.34;102739.28;1732915;80;21183;-73
2020/12/10 06:35:00;;;;;;;21.17;10.30;;;;;;;5.55;31.64;102740.66;1732066;81;21306;-71
2020/12/10 06:37:31;;;;;;;24.75;11.93;;;;;;;5.86;30.32;102730.66;1743033;81;21248;-71
2020/12/10 06:40:07;;;;;;;23.60;11.35;;;;;;;6.08;29.99;102734.77;1686225;83;21817;-70
2020/12/10 06:42:49;;;;;;;26.20;13.18;;;;;;;6.36;29.69;102734.73;1677787;83;21756;-71
2020/12/10 06:45:37;;;;;;;29.63;13.98;;;;;;;6.72;28.97;102731.80;1731157;81;21287;-71
2020/12/10 06:48:14;;;;;;;23.18;12.05;;;;;;;6.77;28.47;102729.03;1728903;81;21146;-72
2020/12/10 06:50:47;;;;;;;22.45;11.03;;;;;;;6.93;28.59;102724.99;1735726;81;21347;-71
2020/12/10 06:53:24;;;;;;;19.77;10.68;;;;;;;7.07;28.13;102724.06;1733656;81;21303;-72
2020/12/10 06:56:02;;;;;;;18.23;10.30;;;;;;;7.33;27.59;102718.77;1725587;81;21338;-71
2020/12/10 06:58:45;;;;;;;23.10;11.65;;;;;;;7.33;27.37;102720.07;1679989;83;21629;-70
2020/12/10 07:01:30;;;;;;;27.67;13.65;;;;;;;7.31;27.35;102717.98;1678408;83;21395;-73
2020/12/10 07:07:25;;;;;;;32.45;11.88;;;;;;;7.44;26.93;102716.64;1675656;85;21356;-71
2020/12/10 07:10:02;;;;;;;21.87;11.38;;;;;;;7.64;26.93;102710.70;1695711;83;21364;-72
2020/12/10 07:12:41;;;;;;;13.50;8.28;;;;;;;7.99;26.55;102708.88;1682688;83;21322;-69
2020/12/10 07:15:22;;;;;;;16.20;8.95;;;;;;;8.00;26.03;102713.16;1729710;81;21367;-70
2020/12/10 07:17:51;;;;;;;18.48;10.60;;;;;;;7.80;26.47;102717.47;1736047;81;21272;-70
2020/12/10 07:20:26;;;;;;;22.75;12.43;;;;;;;8.06;26.47;102720.77;1734409;81;21153;-71
2020/12/10 07:22:59;;;;;;;15.83;10.23;;;;;;;8.30;26.20;102714.20;1676333;83;21320;-73
2020/12/10 07:25:32;;;;;;;14.67;8.93;;;;;;;8.55;25.72;102725.36;1666013;84;21344;-69
2020/12/10 07:28:05;;;;;;;16.40;8.70;;;;;;;8.59;25.55;102723.86;1691897;83;21246;-70
2020/12/10 07:30:40;;;;;;;17.07;7.95;;;;;;;8.86;25.55;102725.75;1685732;83;21232;-71
2020/12/10 07:33:19;;;;;;;16.50;8.60;;;;;;;9.21;25.28;102722.94;1710791;82;21260;-75
2020/12/10 07:35:52;;;;;;;17.32;9.28;;;;;;;9.35;24.55;102724.03;1691996;83;21398;-72
2020/12/10 07:38:25;;;;;;;13.22;8.28;;;;;;;9.08;24.58;102716.08;1712948;82;21261;-72
2020/12/10 07:40:58;;;;;;;12.93;7.60;;;;;;;8.98;24.61;102720.00;1713112;82;21973;-72
2020/12/10 07:43:31;;;;;;;11.93;7.87;;;;;;;8.96;24.72;102712.69;1712968;82;21419;-70
2020/12/10 07:46:04;;;;;;;13.38;8.43;;;;;;;8.92;24.73;102716.36;1720998;82;22291;-72
2020/12/10 07:48:40;;;;;;;12.30;7.03;;;;;;;8.96;24.93;102711.84;1712162;82;21249;-74
2020/12/10 07:51:23;;;;;;;16.37;7.50;;;;;;;9.16;24.58;102715.75;1733098;78;21141;-73
2020/12/10 07:54:04;;;;;;;20.27;8.38;;;;;;;9.17;24.32;102707.01;1713265;81;21241;-72
2020/12/10 07:56:37;;;;;;;17.77;8.40;;;;;;;9.08;24.59;102701.70;1714448;81;21659;-73
2020/12/10 07:59:11;;;;;;;14.28;8.18;;;;;;;9.30;24.47;102699.85;1724574;82;21214;-74
2020/12/10 08:01:50;;;;;;;14.63;7.65;;;;;;;9.54;24.16;102695.73;1717122;83;21474;-72
2020/12/10 08:04:25;;;;;;;12.98;6.45;;;;;;;9.62;23.79;102698.40;1717956;82;21196;-72
2020/12/10 08:06:58;;;;;;;17.03;7.00;;;;;;;9.29;23.69;102713.83;1710327;82;21420;-72
2020/12/10 08:09:31;;;;;;;11.75;7.35;;;;;;;8.97;24.12;102699.17;1710198;82;21456;-72
2020/12/10 08:12:04;;;;;;;14.70;7.33;;;;;;;8.95;24.36;102694.48;1690790;83;21300;-71
2020/12/10 08:14:37;;;;;;;12.33;7.50;;;;;;;9.06;24.41;102689.62;1765274;79;21260;-74
2020/12/10 08:17:20;;;;;;;14.25;7.05;;;;;;;9.00;24.34;102688.60;1761286;79;21264;-72
2020/12/10 08:19:57;;;;;;;11.93;6.77;;;;;;;8.92;24.44;102679.78;1766031;79;21284;-70
2020/12/10 08:22:30;;;;;;;12.23;6.40;;;;;;;8.85;24.39;102680.97;1765088;79;21535;-69
2020/12/10 08:25:06;;;;;;;13.03;6.90;;;;;;;8.64;24.38;102678.83;1756971;81;21679;-70
2020/12/10 08:27:39;;;;;;;15.00;8.20;;;;;;;8.30;24.58;102668.53;1762625;81;21298;-69
2020/12/10 08:30:12;;;;;;;19.37;7.58;;;;;;;8.07;25.08;102665.05;1767324;79;22074;-69
2020/12/10 08:33:02;;;;;;;10.68;6.05;;;;;;;8.08;25.20;102670.68;1761759;79;21318;-70
2020/12/10 08:35:41;;;;;;;11.57;6.75;;;;;;;8.17;24.90;102663.41;1769458;79;21321;-72
2020/12/10 08:38:15;;;;;;;13.30;6.65;;;;;;;8.17;24.70;102660.31;1757958;81;21607;-74
2020/12/10 08:40:59;;;;;;;14.13;7.08;;;;;;;7.98;24.95;102656.30;1759984;79;21270;-70
2020/12/10 08:43:32;;;;;;;10.48;6.25;;;;;;;8.22;25.11;102650.99;1760841;79;21280;-69
2020/12/10 08:46:16;;;;;;;12.78;7.22;;;;;;;8.41;24.46;102657.18;1764903;79;21191;-75
2020/12/10 08:48:56;;;;;;;8.68;5.72;;;;;;;8.13;24.59;102656.14;1764535;79;21334;-74
2020/12/10 08:51:50;;;;;;;11.00;5.92;;;;;;;7.62;25.11;102649.09;1737780;81;21255;-74
2020/12/10 08:54:26;;;;;;;14.50;6.33;;;;;;;6.90;25.79;102651.36;1763505;79;21785;-73
2020/12/10 08:57:07;;;;;;;10.30;6.08;;;;;;;5.80;27.06;102645.49;1741753;80;21335;-75
2020/12/10 08:59:37;;;;;;;14.78;6.67;;;;;;;4.85;28.33;102642.64;1760226;79;21304;-74
2020/12/10 09:02:09;;;;;;;9.15;5.05;;;;;;;4.05;29.52;102631.34;1762714;79;21275;-72
2020/12/10 09:04:43;;;;;;;11.05;5.50;;;;;;;3.28;30.76;102636.97;1762084;81;21292;-70
2020/12/10 09:07:16;;;;;;;11.70;6.05;;;;;;;2.73;31.93;102642.81;1773239;79;21872;-70
2020/12/10 09:09:52;;;;;;;16.62;5.83;;;;;;;2.28;32.79;102629.41;1761642;79;21333;-73
2020/12/10 09:12:25;;;;;;;13.70;6.58;;;;;;;1.85;33.36;102622.36;1726914;81;21280;-75
2020/12/10 09:14:59;;;;;;;8.95;5.80;;;;;;;1.62;34.17;102626.16;1753456;81;21860;-75
2020/12/10 09:17:33;;;;;;;16.12;6.58;;;;;;;1.43;34.58;102612.66;1758657;79;21909;-72
2020/12/10 09:20:08;;;;;;;14.60;6.30;;;;;;;1.10;35.29;102620.37;1761076;79;22215;-76
2020/12/10 09:22:42;;;;;;;15.10;6.80;;;;;;;0.84;36.05;102620.27;1684779;82;21177;-74
2020/12/10 09:25:16;;;;;;;14.27;5.00;;;;;;;0.51;36.56;102608.17;1720665;81;21204;-72
2020/12/10 09:27:50;;;;;;;13.13;5.58;;;;;;;0.24;37.38;102613.56;1756673;79;21177;-74
2020/12/10 09:30:23;;;;;;;14.43;7.40;;;;;;;0.02;38.21;102613.36;1772737;79;21284;-75
2020/12/10 09:32:58;;;;;;;14.28;7.62;;;;;;;-0.15;38.74;102604.90;1756374;79;21385;-70
2020/12/10 09:35:34;;;;;;;12.00;5.47;;;;;;;-0.20;39.14;102602.36;1772402;79;22541;-76
2020/12/10 09:38:11;;;;;;;18.37;7.78;;;;;;;-0.21;39.29;102603.64;1777418;79;21239;-72
2020/12/10 09:40:43;;;;;;;;;;;;;;;-0.29;39.72;102597.28;1769539;79;21648;-72
2020/12/10 09:43:17;;;;;;;15.20;6.62;;;;;;;-0.31;39.94;102593.84;1773419;79;20204;-72
2020/12/10 09:45:58;;;;;;;19.75;8.43;;;;;;;-0.38;40.25;102587.03;1773078;79;21362;-72
2020/12/10 09:48:25;;;;;;;9.33;4.50;;;;;;;-0.42;40.67;102584.48;1776975;79;21310;-74
2020/12/10 09:50:59;;;;;;;10.85;4.87;;;;;;;-0.48;40.94;102585.83;1774795;79;21244;-74
2020/12/10 09:53:47;;;;;;;10.32;4.90;;;;;;;-0.49;41.55;102604.69;1776183;80;21327;-76
2020/12/10 09:58:53;;;;;;;11.50;5.15;;;;;;;-0.50;42.10;102599.14;1776701;79;21274;-76
2020/12/10 10:01:26;;;;;;;16.30;5.42;;;;;;;-0.46;42.20;102586.25;1783222;79;21259;-75
2020/12/10 10:03:59;;;;;;;14.58;6.00;;;;;;;-0.49;42.12;102578.53;1768732;79;22253;-74
2020/12/10 10:06:32;;;;;;;13.20;5.92;;;;;;;-0.49;42.26;102576.39;1784484;79;21295;-76
2020/12/10 10:09:06;;;;;;;8.90;4.90;;;;;;;-0.48;42.40;102572.54;1772818;79;21281;-77
2020/12/10 10:11:39;;;;;;;16.93;6.60;;;;;;;-0.43;42.26;102577.20;1774211;79;21589;-75
2020/12/10 10:14:13;;;;;;;16.42;6.15;;;;;;;-0.40;42.36;102565.60;1781460;80;21877;-75
2020/12/10 10:16:46;;;;;;;11.87;4.93;;;;;;;-0.35;42.03;102561.70;1769849;79;21346;-75
2020/12/10 10:19:20;;;;;;;14.60;6.47;;;;;;;-0.33;41.81;102572.41;1776850;79;21310;-78
2020/12/10 10:21:52;;;;;;;16.80;5.70;;;;;;;-0.29;41.80;102566.40;1780497;79;21272;-79
2020/12/10 10:24:25;;;;;;;12.58;5.20;;;;;;;-0.26;41.68;102563.78;1754598;80;21360;-76
2020/12/10 10:26:59;;;;;;;8.63;4.45;;;;;;;-0.23;41.48;102566.77;1773252;80;22003;-78
2020/12/10 10:29:32;;;;;;;12.15;5.65;;;;;;;-0.19;41.59;102569.76;1773299;80;21306;-75
2020/12/10 10:32:07;;;;;;;10.57;4.80;;;;;;;-0.13;41.37;102567.98;1767908;79;21298;-77
2020/12/10 10:34:40;;;;;;;12.70;5.70;;;;;;;-0.12;40.96;102567.55;1768107;79;21611;-78
2020/12/10 10:37:13;;;;;;;11.57;4.92;;;;;;;-0.14;41.03;102565.39;1766419;79;21314;-78
2020/12/10 10:39:46;;;;;;;17.27;6.05;;;;;;;-0.11;41.11;102565.37;1759845;80;21733;-80
2020/12/10 10:42:19;;;;;;;14.18;4.65;;;;;;;-0.03;41.00;102559.74;1749499;81;21331;-77
2020/12/10 10:44:52;;;;;;;12.30;5.15;;;;;;;0.03;40.67;102549.38;1757887;79;21300;-77
2020/12/10 10:47:26;;;;;;;9.40;4.78;;;;;;;0.08;40.42;102550.19;1762200;79;21897;-78
2020/12/10 10:49:59;;;;;;;13.90;6.45;;;;;;;0.11;40.19;102566.05;1773469;79;21292;-78
2020/12/10 10:52:33;;;;;;;18.00;6.45;;;;;;;0.14;40.11;102547.58;1763151;79;21228;-76
2020/12/10 10:55:06;;;;;;;15.75;5.42;;;;;;;0.17;40.24;102550.09;1759641;80;21228;-78
2020/12/10 10:57:39;;;;;;;14.20;5.10;;;;;;;0.23;39.96;102553.06;1759142;79;21288;-78
2020/12/10 11:00:11;;;;;;;9.65;5.35;;;;;;;0.25;39.62;102550.03;1764150;79;21188;-75
2020/12/10 11:02:45;;;;;;;12.45;4.03;;;;;;;0.25;39.65;102565.06;1702165;82;21274;-70
2020/12/10 11:05:18;;;;;;;12.97;4.73;;;;;;;0.28;39.49;102555.16;1696390;83;21331;-70
2020/12/10 11:07:52;;;;;;;11.78;5.08;;;;;;;0.29;39.49;102551.27;1760915;79;21355;-71
2020/12/10 11:10:37;;;;;;;13.77;6.13;;;;;;;0.32;39.49;102557.69;1773242;79;21267;-70
2020/12/10 11:13:13;;;;;;;14.53;5.65;;;;;;;0.37;39.13;102568.80;1754385;78;21324;-70
2020/12/10 11:15:46;;;;;;;12.35;5.03;;;;;;;0.40;38.98;102556.33;1762440;79;21330;-70
2020/12/10 11:18:19;;;;;;;9.65;3.77;;;;;;;0.42;39.17;102554.16;1745399;80;22233;-69
2020/12/10 11:20:52;;;;;;;9.65;4.37;;;;;;;0.41;39.22;102560.16;1756363;79;21299;-69
2020/12/10 11:23:26;;;;;;;10.63;4.50;;;;;;;0.44;38.96;102561.86;1757193;79;21311;-69
2020/12/10 11:26:00;;;;;;;15.72;5.17;;;;;;;0.44;38.72;102559.28;1761980;79;22211;-68
2020/12/10 11:28:33;;;;;;;11.38;4.15;;;;;;;0.44;38.72;102564.00;1748100;81;21782;-67
2020/12/10 11:31:07;;;;;;;14.47;5.62;;;;;;;0.45;38.66;102560.57;1761304;79;21335;-68
2020/12/10 11:33:40;;;;;;;11.20;5.40;;;;;;;0.47;38.40;102566.98;1744614;79;21295;-70
2020/12/10 11:36:14;;;;;;;13.00;5.62;;;;;;;0.50;38.20;102572.94;1757031;81;22269;-70
2020/12/10 11:38:47;;;;;;;12.82;4.62;;;;;;;0.53;38.23;102568.19;1754683;79;21391;-68
2020/12/10 11:41:21;;;;;;;7.72;3.65;;;;;;;0.55;38.25;102579.37;1760779;79;21295;-69
2020/12/10 11:43:56;;;;;;;132.40;44.50;;;;;;;0.56;38.14;102569.03;1763540;79;21279;-70
2020/12/10 11:46:30;;;;;;;61.88;30.48;;;;;;;0.60;37.79;102573.70;1761491;79;21294;-69
2020/12/10 11:49:04;;;;;;;82.25;38.28;;;;;;;0.58;37.62;102571.58;1729776;81;21150;-69
2020/12/10 11:51:38;;;;;;;24.40;9.55;;;;;;;0.54;37.72;102570.77;1760079;79;21315;-68
2020/12/10 11:54:13;;;;;;;83.67;40.75;;;;;;;0.52;37.90;102562.64;1760082;79;21312;-67
2020/12/10 11:56:49;;;;;;;51.37;24.65;;;;;;;0.51;37.97;102564.36;1766704;79;21919;-70
2020/12/10 11:59:23;;;;;;;39.15;19.50;;;;;;;0.54;38.08;102565.63;1717501;81;21382;-66
2020/12/10 12:01:59;;;;;;;17.90;8.40;;;;;;;0.56;37.77;102561.30;1763280;79;21305;-69
2020/12/10 12:04:33;;;;;;;17.50;11.75;;;;;;;0.54;37.59;102559.61;1763001;79;21180;-71
2020/12/10 12:07:05;;;;;;;;;;;;;;;0.49;37.69;102557.08;1766356;79;21292;-67
2020/12/10 12:09:39;;;;;;;12.23;5.57;;;;;;;0.45;37.64;102551.55;1768244;79;20307;-66
2020/12/10 12:12:13;;;;;;;13.22;6.53;;;;;;;0.38;37.73;102557.61;1757159;79;21258;-67
2020/12/10 12:14:47;;;;;;;16.73;8.70;;;;;;;0.36;37.85;102552.08;1763275;79;22139;-68
2020/12/10 12:17:20;;;;;;;10.58;6.42;;;;;;;0.36;37.89;102555.48;1766529;79;21330;-68
2020/12/10 12:19:54;;;;;;;12.37;5.90;;;;;;;0.40;37.84;102551.17;1758303;79;21235;-70
2020/12/10 12:22:28;;;;;;;14.10;4.50;;;;;;;0.38;37.80;102552.45;1762627;79;21324;-68
2020/12/10 12:25:01;;;;;;;11.70;5.20;;;;;;;0.33;37.92;102552.11;1757444;81;21322;-69
2020/12/10 12:27:36;;;;;;;12.37;5.35;;;;;;;0.31;38.03;102560.29;1766605;79;21280;-67
2020/12/10 12:30:09;;;;;;;13.93;6.28;;;;;;;0.25;38.27;102554.75;1769973;79;21582;-69
2020/12/10 12:32:42;;;;;;;17.10;6.05;;;;;;;0.26;38.38;102557.77;1762753;79;21260;-69
2020/12/10 12:35:15;;;;;;;12.75;5.70;;;;;;;0.22;38.16;102553.91;1761425;79;21336;-69
2020/12/10 12:37:48;;;;;;;12.58;5.53;;;;;;;0.07;38.21;102556.23;1761944;81;21288;-69
2020/12/10 12:40:22;;;;;;;18.50;5.67;;;;;;;0.07;38.21;102556.23;1760741;79;21936;-69
2020/12/10 12:42:57;;;;;;;14.30;7.05;;;;;;;-0.01;38.53;102555.00;1763951;81;21243;-69